sensor_id;sensor_type;location;lat;lon;timestamp;P1;durP1;ratioP1;P2;durP2;ratioP2
9473;SDS011;8865;47.636;7.692;2023-06-19T00:02:11;6.50;;;5.70;;
9473;SDS011;8865;47.636;7.692;2023-06-19T00:04:38;6.50;;;5.90;;
9473;SDS011;8865;47.636;7.692;2023-06-19T00:07:04;6.40;;;5.60;;
9473;SDS011;8865;47.636;7.692;2023-06-19T00:09:30;6.53;;;6.03;;
9473;SDS011;8865;47.636;7.692;2023-06-19T00:11:56;6.33;;;5.83;;
9473;SDS011;8865;47.636;7.692;2023-06-19T00:14:23;6.33;;;5.83;;
9473;SDS011;8865;47.636;7.692;2023-06-19T00:16:49;6.37;;;5.87;;
9473;SDS011;8865;47.636;7.692;2023-06-19T00:19:16;6.83;;;6.23;;
9473;SDS011;8865;47.636;7.692;2023-06-19T00:21:43;6.53;;;5.93;;
9473;SDS011;8865;47.636;7.692;2023-06-19T00:24:09;6.40;;;5.80;;
9473;SDS011;8865;47.636;7.692;2023-06-19T00:26:36;7.03;;;6.43;;
9473;SDS011;8865;47.636;7.692;2023-06-19T00:29:02;6.87;;;6.20;;
9473;SDS011;8865;47.636;7.692;2023-06-19T00:31:28;6.80;;;6.20;;
9473;SDS011;8865;47.636;7.692;2023-06-19T00:33:55;6.03;;;5.53;;
9473;SDS011;8865;47.636;7.692;2023-06-19T00:36:21;7.33;;;6.10;;
9473;SDS011;8865;47.636;7.692;2023-06-19T00:38:49;7.20;;;6.60;;
9473;SDS011;8865;47.636;7.692;2023-06-19T00:41:15;7.00;;;6.40;;
9473;SDS011;8865;47.636;7.692;2023-06-19T00:43:42;7.37;;;6.60;;
9473;SDS011;8865;47.636;7.692;2023-06-19T00:46:08;7.83;;;6.77;;
9473;SDS011;8865;47.636;7.692;2023-06-19T00:48:34;7.67;;;7.07;;
9473;SDS011;8865;47.636;7.692;2023-06-19T00:51:01;7.57;;;6.87;;
9473;SDS011;8865;47.636;7.692;2023-06-19T00:53:27;7.67;;;7.00;;
9473;SDS011;8865;47.636;7.692;2023-06-19T00:55:54;7.87;;;6.97;;
9473;SDS011;8865;47.636;7.692;2023-06-19T00:58:22;8.33;;;7.57;;
9473;SDS011;8865;47.636;7.692;2023-06-19T01:00:48;7.60;;;6.80;;
9473;SDS011;8865;47.636;7.692;2023-06-19T01:03:15;7.53;;;6.73;;
9473;SDS011;8865;47.636;7.692;2023-06-19T01:05:41;7.23;;;6.30;;
9473;SDS011;8865;47.636;7.692;2023-06-19T01:10:49;6.50;;;5.90;;
9473;SDS011;8865;47.636;7.692;2023-06-19T01:13:22;12.60;;;7.87;;
9473;SDS011;8865;47.636;7.692;2023-06-19T01:15:55;9.27;;;7.23;;
9473;SDS011;8865;47.636;7.692;2023-06-19T01:18:22;7.60;;;6.47;;
9473;SDS011;8865;47.636;7.692;2023-06-19T01:20:50;7.10;;;6.13;;
9473;SDS011;8865;47.636;7.692;2023-06-19T01:23:16;8.40;;;6.50;;
9473;SDS011;8865;47.636;7.692;2023-06-19T01:25:42;7.63;;;6.30;;
9473;SDS011;8865;47.636;7.692;2023-06-19T01:28:09;8.17;;;6.73;;
9473;SDS011;8865;47.636;7.692;2023-06-19T01:30:39;7.90;;;6.67;;
9473;SDS011;8865;47.636;7.692;2023-06-19T01:35:39;7.33;;;6.50;;
9473;SDS011;8865;47.636;7.692;2023-06-19T01:38:07;9.10;;;6.67;;
9473;SDS011;8865;47.636;7.692;2023-06-19T01:40:34;7.77;;;7.00;;
9473;SDS011;8865;47.636;7.692;2023-06-19T01:43:02;8.20;;;6.93;;
9473;SDS011;8865;47.636;7.692;2023-06-19T01:45:30;10.17;;;7.80;;
9473;SDS011;8865;47.636;7.692;2023-06-19T01:47:56;7.33;;;6.63;;
9473;SDS011;8865;47.636;7.692;2023-06-19T01:50:23;9.13;;;6.77;;
9473;SDS011;8865;47.636;7.692;2023-06-19T01:52:49;6.90;;;6.23;;
9473;SDS011;8865;47.636;7.692;2023-06-19T01:55:16;6.83;;;6.13;;
9473;SDS011;8865;47.636;7.692;2023-06-19T01:57:42;6.50;;;5.90;;
9473;SDS011;8865;47.636;7.692;2023-06-19T02:00:08;7.23;;;6.53;;
9473;SDS011;8865;47.636;7.692;2023-06-19T02:02:36;7.43;;;6.50;;
9473;SDS011;8865;47.636;7.692;2023-06-19T02:05:02;9.10;;;6.43;;
9473;SDS011;8865;47.636;7.692;2023-06-19T02:07:29;7.20;;;6.50;;
9473;SDS011;8865;47.636;7.692;2023-06-19T02:09:54;7.90;;;7.10;;
9473;SDS011;8865;47.636;7.692;2023-06-19T02:12:20;8.83;;;7.80;;
9473;SDS011;8865;47.636;7.692;2023-06-19T02:14:47;8.57;;;7.63;;
9473;SDS011;8865;47.636;7.692;2023-06-19T02:17:13;8.80;;;7.27;;
9473;SDS011;8865;47.636;7.692;2023-06-19T02:19:39;7.77;;;7.00;;
9473;SDS011;8865;47.636;7.692;2023-06-19T02:22:05;9.97;;;7.70;;
9473;SDS011;8865;47.636;7.692;2023-06-19T02:24:32;8.40;;;7.60;;
9473;SDS011;8865;47.636;7.692;2023-06-19T02:26:58;8.97;;;8.07;;
9473;SDS011;8865;47.636;7.692;2023-06-19T02:29:24;9.13;;;8.10;;
9473;SDS011;8865;47.636;7.692;2023-06-19T02:31:51;9.33;;;7.70;;
9473;SDS011;8865;47.636;7.692;2023-06-19T02:34:17;8.10;;;7.40;;
9473;SDS011;8865;47.636;7.692;2023-06-19T02:36:43;8.57;;;7.87;;
9473;SDS011;8865;47.636;7.692;2023-06-19T02:39:09;8.53;;;7.73;;
9473;SDS011;8865;47.636;7.692;2023-06-19T02:41:35;9.07;;;8.03;;
9473;SDS011;8865;47.636;7.692;2023-06-19T02:44:02;8.00;;;7.27;;
9473;SDS011;8865;47.636;7.692;2023-06-19T02:46:28;8.70;;;7.33;;
9473;SDS011;8865;47.636;7.692;2023-06-19T02:48:54;7.70;;;7.10;;
9473;SDS011;8865;47.636;7.692;2023-06-19T02:51:20;8.50;;;7.40;;
9473;SDS011;8865;47.636;7.692;2023-06-19T02:53:46;8.33;;;6.97;;
9473;SDS011;8865;47.636;7.692;2023-06-19T02:56:13;8.03;;;7.43;;
9473;SDS011;8865;47.636;7.692;2023-06-19T02:58:39;8.10;;;7.30;;
9473;SDS011;8865;47.636;7.692;2023-06-19T03:01:05;7.80;;;7.10;;
9473;SDS011;8865;47.636;7.692;2023-06-19T03:03:34;7.27;;;6.57;;
9473;SDS011;8865;47.636;7.692;2023-06-19T03:06:06;7.57;;;6.77;;
9473;SDS011;8865;47.636;7.692;2023-06-19T03:08:33;8.47;;;7.03;;
9473;SDS011;8865;47.636;7.692;2023-06-19T03:11:00;7.37;;;6.67;;
9473;SDS011;8865;47.636;7.692;2023-06-19T03:13:27;7.10;;;6.50;;
9473;SDS011;8865;47.636;7.692;2023-06-19T03:15:53;6.67;;;6.07;;
9473;SDS011;8865;47.636;7.692;2023-06-19T03:18:18;6.67;;;6.07;;
9473;SDS011;8865;47.636;7.692;2023-06-19T03:20:44;6.83;;;5.90;;
9473;SDS011;8865;47.636;7.692;2023-06-19T03:23:10;7.40;;;6.70;;
9473;SDS011;8865;47.636;7.692;2023-06-19T03:25:36;6.77;;;6.17;;
9473;SDS011;8865;47.636;7.692;2023-06-19T03:28:02;7.67;;;7.03;;
9473;SDS011;8865;47.636;7.692;2023-06-19T03:30:29;8.03;;;7.20;;
9473;SDS011;8865;47.636;7.692;2023-06-19T03:32:55;7.87;;;7.27;;
9473;SDS011;8865;47.636;7.692;2023-06-19T03:35:21;8.03;;;7.23;;
9473;SDS011;8865;47.636;7.692;2023-06-19T03:37:47;8.47;;;7.77;;
9473;SDS011;8865;47.636;7.692;2023-06-19T03:40:13;8.53;;;7.53;;
9473;SDS011;8865;47.636;7.692;2023-06-19T03:42:40;7.67;;;6.97;;
9473;SDS011;8865;47.636;7.692;2023-06-19T03:45:07;8.03;;;7.23;;
9473;SDS011;8865;47.636;7.692;2023-06-19T03:47:33;7.20;;;6.50;;
9473;SDS011;8865;47.636;7.692;2023-06-19T03:49:59;8.23;;;6.50;;
9473;SDS011;8865;47.636;7.692;2023-06-19T03:52:25;6.27;;;5.67;;
9473;SDS011;8865;47.636;7.692;2023-06-19T03:54:51;6.47;;;5.90;;
9473;SDS011;8865;47.636;7.692;2023-06-19T03:57:17;6.43;;;5.83;;
9473;SDS011;8865;47.636;7.692;2023-06-19T03:59:43;6.40;;;5.80;;
9473;SDS011;8865;47.636;7.692;2023-06-19T04:02:09;7.17;;;6.57;;
9473;SDS011;8865;47.636;7.692;2023-06-19T04:04:35;7.63;;;6.93;;
9473;SDS011;8865;47.636;7.692;2023-06-19T04:07:01;8.20;;;7.50;;
9473;SDS011;8865;47.636;7.692;2023-06-19T04:09:27;7.63;;;7.03;;
9473;SDS011;8865;47.636;7.692;2023-06-19T04:11:52;8.40;;;7.53;;
9473;SDS011;8865;47.636;7.692;2023-06-19T04:14:18;8.73;;;8.03;;
9473;SDS011;8865;47.636;7.692;2023-06-19T04:16:44;7.73;;;7.13;;
9473;SDS011;8865;47.636;7.692;2023-06-19T04:19:10;7.80;;;7.00;;
9473;SDS011;8865;47.636;7.692;2023-06-19T04:21:36;8.53;;;7.73;;
9473;SDS011;8865;47.636;7.692;2023-06-19T04:24:02;8.60;;;7.83;;
9473;SDS011;8865;47.636;7.692;2023-06-19T04:26:30;8.10;;;7.47;;
9473;SDS011;8865;47.636;7.692;2023-06-19T04:28:56;8.40;;;7.60;;
9473;SDS011;8865;47.636;7.692;2023-06-19T04:31:22;8.70;;;8.00;;
9473;SDS011;8865;47.636;7.692;2023-06-19T04:33:49;9.87;;;9.07;;
9473;SDS011;8865;47.636;7.692;2023-06-19T04:36:15;9.63;;;8.67;;
9473;SDS011;8865;47.636;7.692;2023-06-19T04:38:41;8.63;;;7.90;;
9473;SDS011;8865;47.636;7.692;2023-06-19T04:41:07;9.27;;;8.57;;
9473;SDS011;8865;47.636;7.692;2023-06-19T04:43:33;9.73;;;8.93;;
9473;SDS011;8865;47.636;7.692;2023-06-19T04:45:59;9.77;;;8.67;;
9473;SDS011;8865;47.636;7.692;2023-06-19T04:48:25;9.80;;;8.90;;
9473;SDS011;8865;47.636;7.692;2023-06-19T04:50:52;9.80;;;8.80;;
9473;SDS011;8865;47.636;7.692;2023-06-19T04:53:18;9.80;;;8.90;;
9473;SDS011;8865;47.636;7.692;2023-06-19T04:55:44;10.10;;;9.23;;
9473;SDS011;8865;47.636;7.692;2023-06-19T04:58:10;10.00;;;8.30;;
9473;SDS011;8865;47.636;7.692;2023-06-19T05:00:36;9.43;;;8.17;;
9473;SDS011;8865;47.636;7.692;2023-06-19T05:03:02;9.30;;;8.40;;
9473;SDS011;8865;47.636;7.692;2023-06-19T05:05:28;9.40;;;8.60;;
9473;SDS011;8865;47.636;7.692;2023-06-19T05:07:54;10.63;;;9.03;;
9473;SDS011;8865;47.636;7.692;2023-06-19T05:10:20;11.73;;;8.53;;
9473;SDS011;8865;47.636;7.692;2023-06-19T05:12:46;9.63;;;8.73;;
9473;SDS011;8865;47.636;7.692;2023-06-19T05:15:12;8.87;;;8.07;;
9473;SDS011;8865;47.636;7.692;2023-06-19T05:17:38;9.03;;;8.13;;
9473;SDS011;8865;47.636;7.692;2023-06-19T05:20:04;10.00;;;7.60;;
9473;SDS011;8865;47.636;7.692;2023-06-19T05:22:33;7.90;;;6.90;;
9473;SDS011;8865;47.636;7.692;2023-06-19T05:25:00;8.40;;;7.57;;
9473;SDS011;8865;47.636;7.692;2023-06-19T05:27:26;7.97;;;7.27;;
9473;SDS011;8865;47.636;7.692;2023-06-19T05:29:52;8.10;;;7.40;;
9473;SDS011;8865;47.636;7.692;2023-06-19T05:32:18;8.20;;;7.47;;
9473;SDS011;8865;47.636;7.692;2023-06-19T05:34:44;8.10;;;7.40;;
9473;SDS011;8865;47.636;7.692;2023-06-19T05:37:10;8.43;;;7.73;;
9473;SDS011;8865;47.636;7.692;2023-06-19T05:39:36;8.23;;;7.53;;
9473;SDS011;8865;47.636;7.692;2023-06-19T05:42:02;8.40;;;7.47;;
9473;SDS011;8865;47.636;7.692;2023-06-19T05:44:28;8.70;;;7.77;;
9473;SDS011;8865;47.636;7.692;2023-06-19T05:46:54;8.13;;;7.10;;
9473;SDS011;8865;47.636;7.692;2023-06-19T05:49:20;7.40;;;6.70;;
9473;SDS011;8865;47.636;7.692;2023-06-19T05:51:46;9.50;;;7.10;;
9473;SDS011;8865;47.636;7.692;2023-06-19T05:54:12;7.67;;;7.07;;
9473;SDS011;8865;47.636;7.692;2023-06-19T05:56:38;7.90;;;7.20;;
9473;SDS011;8865;47.636;7.692;2023-06-19T05:59:04;8.03;;;7.23;;
9473;SDS011;8865;47.636;7.692;2023-06-19T06:01:30;7.87;;;6.90;;
9473;SDS011;8865;47.636;7.692;2023-06-19T06:03:56;7.23;;;6.63;;
9473;SDS011;8865;47.636;7.692;2023-06-19T06:06:23;7.60;;;6.90;;
9473;SDS011;8865;47.636;7.692;2023-06-19T06:08:49;7.73;;;6.93;;
9473;SDS011;8865;47.636;7.692;2023-06-19T06:11:17;7.30;;;6.70;;
9473;SDS011;8865;47.636;7.692;2023-06-19T06:13:43;7.40;;;6.70;;
9473;SDS011;8865;47.636;7.692;2023-06-19T06:16:09;8.47;;;7.23;;
9473;SDS011;8865;47.636;7.692;2023-06-19T06:18:35;8.03;;;7.33;;
9473;SDS011;8865;47.636;7.692;2023-06-19T06:21:01;7.80;;;7.03;;
9473;SDS011;8865;47.636;7.692;2023-06-19T06:23:27;7.07;;;6.37;;
9473;SDS011;8865;47.636;7.692;2023-06-19T06:25:53;7.90;;;6.87;;
9473;SDS011;8865;47.636;7.692;2023-06-19T06:28:26;7.80;;;6.97;;
9473;SDS011;8865;47.636;7.692;2023-06-19T06:30:52;8.63;;;5.80;;
9473;SDS011;8865;47.636;7.692;2023-06-19T06:33:18;6.57;;;5.80;;
9473;SDS011;8865;47.636;7.692;2023-06-19T06:35:44;6.40;;;5.80;;
9473;SDS011;8865;47.636;7.692;2023-06-19T06:38:10;6.37;;;5.87;;
9473;SDS011;8865;47.636;7.692;2023-06-19T06:40:36;6.73;;;6.03;;
9473;SDS011;8865;47.636;7.692;2023-06-19T06:43:02;6.30;;;5.70;;
9473;SDS011;8865;47.636;7.692;2023-06-19T06:45:28;6.23;;;5.73;;
9473;SDS011;8865;47.636;7.692;2023-06-19T06:47:54;6.53;;;5.93;;
9473;SDS011;8865;47.636;7.692;2023-06-19T06:50:20;5.90;;;5.40;;
9473;SDS011;8865;47.636;7.692;2023-06-19T06:52:46;6.13;;;5.53;;
9473;SDS011;8865;47.636;7.692;2023-06-19T06:55:12;7.83;;;6.10;;
9473;SDS011;8865;47.636;7.692;2023-06-19T06:57:38;7.60;;;5.83;;
9473;SDS011;8865;47.636;7.692;2023-06-19T07:00:05;7.27;;;5.90;;
9473;SDS011;8865;47.636;7.692;2023-06-19T07:02:33;6.23;;;5.73;;
9473;SDS011;8865;47.636;7.692;2023-06-19T07:04:59;7.83;;;6.20;;
9473;SDS011;8865;47.636;7.692;2023-06-19T07:07:25;6.57;;;5.97;;
9473;SDS011;8865;47.636;7.692;2023-06-19T07:09:51;6.50;;;6.00;;
9473;SDS011;8865;47.636;7.692;2023-06-19T07:12:17;6.30;;;5.70;;
9473;SDS011;8865;47.636;7.692;2023-06-19T07:14:43;6.30;;;5.70;;
9473;SDS011;8865;47.636;7.692;2023-06-19T07:17:09;6.17;;;5.67;;
9473;SDS011;8865;47.636;7.692;2023-06-19T07:19:35;6.13;;;5.63;;
9473;SDS011;8865;47.636;7.692;2023-06-19T07:22:01;6.97;;;6.27;;
9473;SDS011;8865;47.636;7.692;2023-06-19T07:24:27;6.37;;;5.77;;
9473;SDS011;8865;47.636;7.692;2023-06-19T07:26:53;6.80;;;6.10;;
9473;SDS011;8865;47.636;7.692;2023-06-19T07:29:19;6.73;;;6.20;;
9473;SDS011;8865;47.636;7.692;2023-06-19T07:31:47;6.50;;;5.67;;
9473;SDS011;8865;47.636;7.692;2023-06-19T07:34:13;6.90;;;6.10;;
9473;SDS011;8865;47.636;7.692;2023-06-19T07:36:39;6.43;;;5.77;;
9473;SDS011;8865;47.636;7.692;2023-06-19T07:39:05;6.97;;;6.07;;
9473;SDS011;8865;47.636;7.692;2023-06-19T07:41:31;6.80;;;6.20;;
9473;SDS011;8865;47.636;7.692;2023-06-19T07:43:57;6.17;;;5.67;;
9473;SDS011;8865;47.636;7.692;2023-06-19T07:46:23;6.40;;;5.80;;
9473;SDS011;8865;47.636;7.692;2023-06-19T07:48:49;6.03;;;5.53;;
9473;SDS011;8865;47.636;7.692;2023-06-19T07:51:15;7.47;;;6.40;;
9473;SDS011;8865;47.636;7.692;2023-06-19T07:53:42;6.00;;;5.40;;
9473;SDS011;8865;47.636;7.692;2023-06-19T07:56:09;6.57;;;5.73;;
9473;SDS011;8865;47.636;7.692;2023-06-19T07:58:35;6.40;;;5.90;;
9473;SDS011;8865;47.636;7.692;2023-06-19T08:01:01;6.03;;;5.50;;
9473;SDS011;8865;47.636;7.692;2023-06-19T08:03:27;6.10;;;5.60;;
9473;SDS011;8865;47.636;7.692;2023-06-19T08:05:53;5.70;;;5.20;;
9473;SDS011;8865;47.636;7.692;2023-06-19T08:08:18;6.10;;;5.60;;
9473;SDS011;8865;47.636;7.692;2023-06-19T08:10:44;6.60;;;5.93;;
9473;SDS011;8865;47.636;7.692;2023-06-19T08:13:10;6.60;;;5.67;;
9473;SDS011;8865;47.636;7.692;2023-06-19T08:15:39;6.47;;;5.87;;
9473;SDS011;8865;47.636;7.692;2023-06-19T08:18:05;6.30;;;5.70;;
9473;SDS011;8865;47.636;7.692;2023-06-19T08:20:31;6.10;;;5.50;;
9473;SDS011;8865;47.636;7.692;2023-06-19T08:22:57;6.20;;;5.70;;
9473;SDS011;8865;47.636;7.692;2023-06-19T08:25:23;7.00;;;6.23;;
9473;SDS011;8865;47.636;7.692;2023-06-19T08:27:49;6.13;;;5.57;;
9473;SDS011;8865;47.636;7.692;2023-06-19T08:30:15;5.90;;;5.30;;
9473;SDS011;8865;47.636;7.692;2023-06-19T08:32:43;5.87;;;5.30;;
9473;SDS011;8865;47.636;7.692;2023-06-19T08:35:09;5.90;;;5.43;;
9473;SDS011;8865;47.636;7.692;2023-06-19T08:37:36;6.63;;;5.97;;
9473;SDS011;8865;47.636;7.692;2023-06-19T08:40:03;6.33;;;5.73;;
9473;SDS011;8865;47.636;7.692;2023-06-19T08:42:34;7.20;;;5.80;;
9473;SDS011;8865;47.636;7.692;2023-06-19T08:45:01;6.10;;;5.27;;
9473;SDS011;8865;47.636;7.692;2023-06-19T08:47:31;6.10;;;5.60;;
9473;SDS011;8865;47.636;7.692;2023-06-19T08:49:58;6.47;;;5.70;;
9473;SDS011;8865;47.636;7.692;2023-06-19T08:52:24;8.50;;;5.97;;
9473;SDS011;8865;47.636;7.692;2023-06-19T08:54:50;6.50;;;5.53;;
9473;SDS011;8865;47.636;7.692;2023-06-19T08:57:16;6.43;;;5.83;;
9473;SDS011;8865;47.636;7.692;2023-06-19T08:59:48;6.73;;;6.13;;
9473;SDS011;8865;47.636;7.692;2023-06-19T09:02:18;6.28;;;5.78;;
9473;SDS011;8865;47.636;7.692;2023-06-19T09:04:44;5.90;;;5.40;;
9473;SDS011;8865;47.636;7.692;2023-06-19T09:07:11;5.90;;;5.50;;
9473;SDS011;8865;47.636;7.692;2023-06-19T09:09:43;6.60;;;6.05;;
9473;SDS011;8865;47.636;7.692;2023-06-19T09:12:12;6.00;;;5.47;;
9473;SDS011;8865;47.636;7.692;2023-06-19T09:14:40;5.93;;;5.43;;
9473;SDS011;8865;47.636;7.692;2023-06-19T09:17:10;8.32;;;5.82;;
9473;SDS011;8865;47.636;7.692;2023-06-19T09:19:38;6.45;;;5.93;;
9473;SDS011;8865;47.636;7.692;2023-06-19T09:22:13;6.43;;;5.78;;
9473;SDS011;8865;47.636;7.692;2023-06-19T09:24:39;6.22;;;5.60;;
9473;SDS011;8865;47.636;7.692;2023-06-19T09:29:42;5.80;;;5.40;;
9473;SDS011;8865;47.636;7.692;2023-06-19T09:32:34;6.50;;;5.90;;
9473;SDS011;8865;47.636;7.692;2023-06-19T09:35:01;5.82;;;5.32;;
9473;SDS011;8865;47.636;7.692;2023-06-19T09:37:29;6.00;;;5.50;;
9473;SDS011;8865;47.636;7.692;2023-06-19T09:39:57;5.63;;;5.18;;
9473;SDS011;8865;47.636;7.692;2023-06-19T09:42:29;5.35;;;4.95;;
9473;SDS011;8865;47.636;7.692;2023-06-19T09:44:59;5.50;;;5.00;;
9473;SDS011;8865;47.636;7.692;2023-06-19T09:47:31;5.30;;;4.90;;
9473;SDS011;8865;47.636;7.692;2023-06-19T09:50:04;5.80;;;5.18;;
9473;SDS011;8865;47.636;7.692;2023-06-19T09:52:32;5.43;;;4.93;;
9473;SDS011;8865;47.636;7.692;2023-06-19T09:55:01;6.63;;;5.50;;
9473;SDS011;8865;47.636;7.692;2023-06-19T09:57:33;5.32;;;4.85;;
9473;SDS011;8865;47.636;7.692;2023-06-19T10:00:02;5.55;;;4.93;;
9473;SDS011;8865;47.636;7.692;2023-06-19T10:02:38;5.28;;;4.88;;
9473;SDS011;8865;47.636;7.692;2023-06-19T10:05:06;5.93;;;5.43;;
9473;SDS011;8865;47.636;7.692;2023-06-19T10:07:38;5.07;;;4.68;;
9473;SDS011;8865;47.636;7.692;2023-06-19T10:10:10;5.40;;;5.00;;
9473;SDS011;8865;47.636;7.692;2023-06-19T10:15:12;4.65;;;4.25;;
9473;SDS011;8865;47.636;7.692;2023-06-19T10:17:43;4.88;;;4.57;;
9473;SDS011;8865;47.636;7.692;2023-06-19T10:20:40;4.85;;;4.45;;
9473;SDS011;8865;47.636;7.692;2023-06-19T10:25:34;4.78;;;4.30;;
9473;SDS011;8865;47.636;7.692;2023-06-19T10:28:01;5.07;;;4.60;;
9473;SDS011;8865;47.636;7.692;2023-06-19T10:30:31;5.13;;;4.68;;
9473;SDS011;8865;47.636;7.692;2023-06-19T10:32:59;4.82;;;4.30;;
9473;SDS011;8865;47.636;7.692;2023-06-19T10:35:28;4.80;;;4.50;;
9473;SDS011;8865;47.636;7.692;2023-06-19T10:37:54;5.53;;;4.53;;
9473;SDS011;8865;47.636;7.692;2023-06-19T10:40:20;4.88;;;4.47;;
9473;SDS011;8865;47.636;7.692;2023-06-19T10:42:51;5.38;;;4.88;;
9473;SDS011;8865;47.636;7.692;2023-06-19T10:45:17;4.95;;;4.55;;
9473;SDS011;8865;47.636;7.692;2023-06-19T10:47:46;5.25;;;4.75;;
9473;SDS011;8865;47.636;7.692;2023-06-19T10:50:36;5.50;;;4.80;;
9473;SDS011;8865;47.636;7.692;2023-06-19T10:53:22;5.30;;;4.80;;
9473;SDS011;8865;47.636;7.692;2023-06-19T10:56:16;5.60;;;4.95;;
9473;SDS011;8865;47.636;7.692;2023-06-19T10:59:07;5.20;;;4.80;;
9473;SDS011;8865;47.636;7.692;2023-06-19T11:01:40;4.90;;;4.60;;
9473;SDS011;8865;47.636;7.692;2023-06-19T11:04:09;5.40;;;5.00;;
9473;SDS011;8865;47.636;7.692;2023-06-19T11:06:36;5.35;;;4.90;;
9473;SDS011;8865;47.636;7.692;2023-06-19T11:09:04;5.15;;;4.70;;
9473;SDS011;8865;47.636;7.692;2023-06-19T11:11:35;5.15;;;4.75;;
9473;SDS011;8865;47.636;7.692;2023-06-19T11:14:01;4.97;;;4.57;;
9473;SDS011;8865;47.636;7.692;2023-06-19T11:16:28;5.38;;;4.88;;
9473;SDS011;8865;47.636;7.692;2023-06-19T11:18:57;5.30;;;4.80;;
9473;SDS011;8865;47.636;7.692;2023-06-19T11:21:30;5.13;;;4.72;;
9473;SDS011;8865;47.636;7.692;2023-06-19T11:24:00;5.15;;;4.75;;
9473;SDS011;8865;47.636;7.692;2023-06-19T11:26:27;5.15;;;4.65;;
9473;SDS011;8865;47.636;7.692;2023-06-19T11:28:53;5.22;;;4.82;;
9473;SDS011;8865;47.636;7.692;2023-06-19T11:31:26;4.82;;;4.43;;
9473;SDS011;8865;47.636;7.692;2023-06-19T11:33:57;4.50;;;4.15;;
9473;SDS011;8865;47.636;7.692;2023-06-19T11:36:24;5.45;;;5.05;;
9473;SDS011;8865;47.636;7.692;2023-06-19T11:38:53;4.72;;;4.38;;
9473;SDS011;8865;47.636;7.692;2023-06-19T11:41:25;4.85;;;4.45;;
9473;SDS011;8865;47.636;7.692;2023-06-19T11:43:58;5.30;;;4.90;;
9473;SDS011;8865;47.636;7.692;2023-06-19T11:46:29;5.57;;;5.07;;
9473;SDS011;8865;47.636;7.692;2023-06-19T11:49:06;5.20;;;4.80;;
9473;SDS011;8865;47.636;7.692;2023-06-19T11:51:37;5.05;;;4.65;;
9473;SDS011;8865;47.636;7.692;2023-06-19T11:54:05;5.22;;;4.82;;
9473;SDS011;8865;47.636;7.692;2023-06-19T11:56:32;5.40;;;4.90;;
9473;SDS011;8865;47.636;7.692;2023-06-19T11:58:59;5.75;;;5.25;;
9473;SDS011;8865;47.636;7.692;2023-06-19T12:01:26;5.30;;;4.93;;
9473;SDS011;8865;47.636;7.692;2023-06-19T12:03:52;5.50;;;5.00;;
9473;SDS011;8865;47.636;7.692;2023-06-19T12:06:18;5.10;;;4.60;;
9473;SDS011;8865;47.636;7.692;2023-06-19T12:08:44;4.63;;;4.22;;
9473;SDS011;8865;47.636;7.692;2023-06-19T12:11:10;4.95;;;4.30;;
9473;SDS011;8865;47.636;7.692;2023-06-19T12:13:40;5.05;;;4.57;;
9473;SDS011;8865;47.636;7.692;2023-06-19T12:16:07;4.80;;;4.40;;
9473;SDS011;8865;47.636;7.692;2023-06-19T12:18:33;4.88;;;4.47;;
9473;SDS011;8865;47.636;7.692;2023-06-19T12:21:00;6.03;;;4.55;;
9473;SDS011;8865;47.636;7.692;2023-06-19T12:23:26;5.00;;;4.38;;
9473;SDS011;8865;47.636;7.692;2023-06-19T12:25:52;4.50;;;4.10;;
9473;SDS011;8865;47.636;7.692;2023-06-19T12:28:18;4.95;;;4.20;;
9473;SDS011;8865;47.636;7.692;2023-06-19T12:30:45;4.65;;;4.10;;
9473;SDS011;8865;47.636;7.692;2023-06-19T12:33:11;5.18;;;4.63;;
9473;SDS011;8865;47.636;7.692;2023-06-19T12:35:39;4.95;;;4.45;;
9473;SDS011;8865;47.636;7.692;2023-06-19T12:38:06;4.70;;;4.30;;
9473;SDS011;8865;47.636;7.692;2023-06-19T12:40:33;4.47;;;4.18;;
9473;SDS011;8865;47.636;7.692;2023-06-19T12:42:59;5.20;;;4.80;;
9473;SDS011;8865;47.636;7.692;2023-06-19T12:45:25;4.60;;;4.30;;
9473;SDS011;8865;47.636;7.692;2023-06-19T12:47:51;4.90;;;4.50;;
9473;SDS011;8865;47.636;7.692;2023-06-19T12:50:17;5.40;;;4.88;;
9473;SDS011;8865;47.636;7.692;2023-06-19T12:52:43;4.70;;;4.30;;
9473;SDS011;8865;47.636;7.692;2023-06-19T12:55:09;4.70;;;4.40;;
9473;SDS011;8865;47.636;7.692;2023-06-19T12:57:36;5.05;;;4.47;;
9473;SDS011;8865;47.636;7.692;2023-06-19T13:00:02;5.03;;;4.43;;
9473;SDS011;8865;47.636;7.692;2023-06-19T13:02:34;5.18;;;4.65;;
9473;SDS011;8865;47.636;7.692;2023-06-19T13:05:00;6.35;;;4.30;;
9473;SDS011;8865;47.636;7.692;2023-06-19T13:07:26;4.68;;;4.13;;
9473;SDS011;8865;47.636;7.692;2023-06-19T13:09:52;4.82;;;4.38;;
9473;SDS011;8865;47.636;7.692;2023-06-19T13:12:18;4.93;;;4.47;;
9473;SDS011;8865;47.636;7.692;2023-06-19T13:14:44;4.68;;;4.32;;
9473;SDS011;8865;47.636;7.692;2023-06-19T13:17:10;5.65;;;4.70;;
9473;SDS011;8865;47.636;7.692;2023-06-19T13:19:36;4.90;;;4.50;;
9473;SDS011;8865;47.636;7.692;2023-06-19T13:22:02;4.60;;;4.30;;
9473;SDS011;8865;47.636;7.692;2023-06-19T13:24:28;4.85;;;4.45;;
9473;SDS011;8865;47.636;7.692;2023-06-19T13:26:54;4.68;;;4.20;;
9473;SDS011;8865;47.636;7.692;2023-06-19T13:29:20;4.60;;;4.30;;
9473;SDS011;8865;47.636;7.692;2023-06-19T13:31:47;4.75;;;4.35;;
9473;SDS011;8865;47.636;7.692;2023-06-19T13:34:13;4.78;;;4.38;;
9473;SDS011;8865;47.636;7.692;2023-06-19T13:36:39;4.88;;;4.50;;
9473;SDS011;8865;47.636;7.692;2023-06-19T13:39:05;4.18;;;3.80;;
9473;SDS011;8865;47.636;7.692;2023-06-19T13:41:31;4.93;;;4.45;;
9473;SDS011;8865;47.636;7.692;2023-06-19T13:43:58;5.32;;;4.40;;
9473;SDS011;8865;47.636;7.692;2023-06-19T13:46:24;6.22;;;4.45;;
9473;SDS011;8865;47.636;7.692;2023-06-19T13:48:51;5.43;;;4.18;;
9473;SDS011;8865;47.636;7.692;2023-06-19T13:51:17;4.63;;;4.22;;
9473;SDS011;8865;47.636;7.692;2023-06-19T13:53:44;4.90;;;4.40;;
9473;SDS011;8865;47.636;7.692;2023-06-19T13:56:11;5.53;;;4.60;;
9473;SDS011;8865;47.636;7.692;2023-06-19T13:58:38;4.60;;;4.30;;
9473;SDS011;8865;47.636;7.692;2023-06-19T14:01:04;4.85;;;4.43;;
9473;SDS011;8865;47.636;7.692;2023-06-19T14:03:31;4.80;;;4.45;;
9473;SDS011;8865;47.636;7.692;2023-06-19T14:05:58;4.80;;;4.38;;
9473;SDS011;8865;47.636;7.692;2023-06-19T14:08:24;4.82;;;4.43;;
9473;SDS011;8865;47.636;7.692;2023-06-19T14:10:50;4.63;;;4.32;;
9473;SDS011;8865;47.636;7.692;2023-06-19T14:13:16;5.35;;;4.80;;
9473;SDS011;8865;47.636;7.692;2023-06-19T14:15:42;4.90;;;4.50;;
9473;SDS011;8865;47.636;7.692;2023-06-19T14:18:08;6.55;;;5.00;;
9473;SDS011;8865;47.636;7.692;2023-06-19T14:20:34;4.80;;;4.50;;
9473;SDS011;8865;47.636;7.692;2023-06-19T14:23:00;4.95;;;4.55;;
9473;SDS011;8865;47.636;7.692;2023-06-19T14:25:26;5.13;;;4.68;;
9473;SDS011;8865;47.636;7.692;2023-06-19T14:27:52;5.00;;;4.60;;
9473;SDS011;8865;47.636;7.692;2023-06-19T14:30:18;5.47;;;4.97;;
9473;SDS011;8865;47.636;7.692;2023-06-19T14:32:44;5.53;;;5.05;;
9473;SDS011;8865;47.636;7.692;2023-06-19T14:35:10;5.38;;;4.88;;
9473;SDS011;8865;47.636;7.692;2023-06-19T14:37:36;5.43;;;4.95;;
9473;SDS011;8865;47.636;7.692;2023-06-19T14:40:02;5.32;;;4.90;;
9473;SDS011;8865;47.636;7.692;2023-06-19T14:42:30;6.07;;;5.53;;
9473;SDS011;8865;47.636;7.692;2023-06-19T14:44:56;5.25;;;4.85;;
9473;SDS011;8865;47.636;7.692;2023-06-19T14:47:22;5.53;;;5.13;;
9473;SDS011;8865;47.636;7.692;2023-06-19T14:49:50;6.10;;;5.60;;
9473;SDS011;8865;47.636;7.692;2023-06-19T14:52:16;5.93;;;5.47;;
9473;SDS011;8865;47.636;7.692;2023-06-19T14:54:44;5.82;;;5.40;;
9473;SDS011;8865;47.636;7.692;2023-06-19T14:57:10;6.35;;;5.78;;
9473;SDS011;8865;47.636;7.692;2023-06-19T14:59:36;6.10;;;5.60;;
9473;SDS011;8865;47.636;7.692;2023-06-19T15:02:02;5.78;;;5.38;;
9473;SDS011;8865;47.636;7.692;2023-06-19T15:04:28;6.20;;;5.70;;
9473;SDS011;8865;47.636;7.692;2023-06-19T15:06:54;6.28;;;5.78;;
9473;SDS011;8865;47.636;7.692;2023-06-19T15:09:21;5.80;;;5.20;;
9473;SDS011;8865;47.636;7.692;2023-06-19T15:11:47;5.93;;;5.43;;
9473;SDS011;8865;47.636;7.692;2023-06-19T15:14:13;5.82;;;5.32;;
9473;SDS011;8865;47.636;7.692;2023-06-19T15:16:39;6.63;;;5.80;;
9473;SDS011;8865;47.636;7.692;2023-06-19T15:19:05;6.90;;;5.45;;
9473;SDS011;8865;47.636;7.692;2023-06-19T15:21:31;5.90;;;5.40;;
9473;SDS011;8865;47.636;7.692;2023-06-19T15:23:57;5.82;;;5.32;;
9473;SDS011;8865;47.636;7.692;2023-06-19T15:26:23;5.65;;;5.10;;
9473;SDS011;8865;47.636;7.692;2023-06-19T15:28:50;6.05;;;5.60;;